sensor_id;sensor_type;location;lat;lon;timestamp;pressure;altitude;pressure_sealevel;temperature;humidity
3464;BME280;3551;41.578;24.706;2023-08-08T00:00:24;90919.00;;;19.08;77.75
3464;BME280;3551;41.578;24.706;2023-08-08T00:02:51;90917.34;;;19.10;77.95
3464;BME280;3551;41.578;24.706;2023-08-08T00:05:17;90913.34;;;18.66;80.56
3464;BME280;3551;41.578;24.706;2023-08-08T00:07:44;90920.16;;;18.89;79.30
3464;BME280;3551;41.578;24.706;2023-08-08T00:10:11;90916.72;;;18.88;78.82
3464;BME280;3551;41.578;24.706;2023-08-08T00:12:37;90920.63;;;18.87;78.67
3464;BME280;3551;41.578;24.706;2023-08-08T00:15:06;90918.69;;;18.97;78.30
3464;BME280;3551;41.578;24.706;2023-08-08T00:17:33;90923.91;;;18.91;77.85
3464;BME280;3551;41.578;24.706;2023-08-08T00:20:00;90926.50;;;18.95;77.61
3464;BME280;3551;41.578;24.706;2023-08-08T00:22:26;90924.56;;;19.14;76.50
3464;BME280;3551;41.578;24.706;2023-08-08T00:24:53;90920.22;;;19.25;76.13
3464;BME280;3551;41.578;24.706;2023-08-08T00:27:19;90921.28;;;19.28;76.06
3464;BME280;3551;41.578;24.706;2023-08-08T00:29:46;90923.66;;;19.07;76.47
3464;BME280;3551;41.578;24.706;2023-08-08T00:32:14;90928.31;;;18.98;77.29
3464;BME280;3551;41.578;24.706;2023-08-08T00:34:41;90915.97;;;18.88;77.44
3464;BME280;3551;41.578;24.706;2023-08-08T00:37:07;90915.78;;;18.91;77.34
3464;BME280;3551;41.578;24.706;2023-08-08T00:39:34;90914.88;;;18.76;77.98
3464;BME280;3551;41.578;24.706;2023-08-08T00:42:00;90919.25;;;18.74;78.84
3464;BME280;3551;41.578;24.706;2023-08-08T00:44:27;90916.69;;;18.79;78.53
3464;BME280;3551;41.578;24.706;2023-08-08T00:46:55;90910.09;;;18.98;77.94
3464;BME280;3551;41.578;24.706;2023-08-08T00:49:23;90920.78;;;19.02;77.97
3464;BME280;3551;41.578;24.706;2023-08-08T00:51:50;90922.75;;;19.01;76.77
3464;BME280;3551;41.578;24.706;2023-08-08T00:54:16;90920.03;;;19.01;76.17
3464;BME280;3551;41.578;24.706;2023-08-08T00:56:43;90925.16;;;19.18;75.30
3464;BME280;3551;41.578;24.706;2023-08-08T00:59:10;90927.44;;;19.10;75.92
3464;BME280;3551;41.578;24.706;2023-08-08T01:01:38;90928.31;;;18.98;76.40
3464;BME280;3551;41.578;24.706;2023-08-08T01:04:05;90928.47;;;19.03;76.74
3464;BME280;3551;41.578;24.706;2023-08-08T01:06:35;90928.63;;;19.09;75.39
3464;BME280;3551;41.578;24.706;2023-08-08T01:09:04;90926.81;;;19.15;75.12
3464;BME280;3551;41.578;24.706;2023-08-08T01:11:34;90932.22;;;19.06;75.42
3464;BME280;3551;41.578;24.706;2023-08-08T01:14:01;90938.88;;;19.05;75.26
3464;BME280;3551;41.578;24.706;2023-08-08T01:16:28;90934.59;;;18.86;76.33
3464;BME280;3551;41.578;24.706;2023-08-08T01:18:56;90937.13;;;18.71;77.59
3464;BME280;3551;41.578;24.706;2023-08-08T01:21:24;90937.44;;;18.73;77.55
3464;BME280;3551;41.578;24.706;2023-08-08T01:23:54;90940.28;;;18.70;77.15
3464;BME280;3551;41.578;24.706;2023-08-08T01:26:24;90947.97;;;18.62;77.60
3464;BME280;3551;41.578;24.706;2023-08-08T01:28:52;90948.56;;;18.35;79.12
3464;BME280;3551;41.578;24.706;2023-08-08T01:31:19;90941.34;;;18.32;78.61
3464;BME280;3551;41.578;24.706;2023-08-08T01:33:46;90947.69;;;18.38;78.35
3464;BME280;3551;41.578;24.706;2023-08-08T01:36:13;90949.88;;;18.31;79.11
3464;BME280;3551;41.578;24.706;2023-08-08T01:38:43;90949.75;;;18.56;78.15
3464;BME280;3551;41.578;24.706;2023-08-08T01:41:11;90950.53;;;18.75;77.04
3464;BME280;3551;41.578;24.706;2023-08-08T01:43:40;90955.03;;;18.69;77.14
3464;BME280;3551;41.578;24.706;2023-08-08T01:46:07;90956.91;;;18.90;76.02
3464;BME280;3551;41.578;24.706;2023-08-08T01:48:34;90956.16;;;18.89;76.23
3464;BME280;3551;41.578;24.706;2023-08-08T01:51:02;90958.75;;;18.53;77.43
3464;BME280;3551;41.578;24.706;2023-08-08T01:53:28;90960.69;;;18.52;77.26
3464;BME280;3551;41.578;24.706;2023-08-08T01:55:55;90951.06;;;18.51;77.17
3464;BME280;3551;41.578;24.706;2023-08-08T01:58:22;90955.22;;;18.43;77.79
3464;BME280;3551;41.578;24.706;2023-08-08T02:00:50;90950.75;;;18.49;77.28
3464;BME280;3551;41.578;24.706;2023-08-08T02:03:16;90950.34;;;18.60;76.17
3464;BME280;3551;41.578;24.706;2023-08-08T02:05:43;90952.94;;;18.42;77.07
3464;BME280;3551;41.578;24.706;2023-08-08T02:08:10;90956.09;;;18.40;77.33
3464;BME280;3551;41.578;24.706;2023-08-08T02:10:38;90953.75;;;18.21;78.11
3464;BME280;3551;41.578;24.706;2023-08-08T02:13:04;90954.19;;;18.19;78.60
3464;BME280;3551;41.578;24.706;2023-08-08T02:15:31;90954.06;;;18.23;78.37
3464;BME280;3551;41.578;24.706;2023-08-08T02:18:00;90954.81;;;18.23;77.69
3464;BME280;3551;41.578;24.706;2023-08-08T02:20:29;90960.13;;;18.05;78.62
3464;BME280;3551;41.578;24.706;2023-08-08T02:22:55;90963.31;;;18.13;78.03
3464;BME280;3551;41.578;24.706;2023-08-08T02:25:22;90960.53;;;18.25;77.37
3464;BME280;3551;41.578;24.706;2023-08-08T02:27:49;90966.84;;;18.22;78.07
3464;BME280;3551;41.578;24.706;2023-08-08T02:30:15;90972.84;;;18.17;78.47
3464;BME280;3551;41.578;24.706;2023-08-08T02:32:42;90964.22;;;18.10;78.73
3464;BME280;3551;41.578;24.706;2023-08-08T02:35:10;90969.91;;;18.03;79.43
3464;BME280;3551;41.578;24.706;2023-08-08T02:37:37;90964.44;;;18.24;78.22
3464;BME280;3551;41.578;24.706;2023-08-08T02:40:04;90966.31;;;18.06;79.21
3464;BME280;3551;41.578;24.706;2023-08-08T02:42:31;90969.13;;;18.24;78.15
3464;BME280;3551;41.578;24.706;2023-08-08T02:44:58;90971.59;;;18.40;77.48
3464;BME280;3551;41.578;24.706;2023-08-08T02:47:24;90975.19;;;18.37;77.44
3464;BME280;3551;41.578;24.706;2023-08-08T02:49:51;90978.19;;;18.39;77.14
3464;BME280;3551;41.578;24.706;2023-08-08T02:52:19;90984.00;;;17.97;78.67
3464;BME280;3551;41.578;24.706;2023-08-08T02:54:45;90992.88;;;17.76;79.77
3464;BME280;3551;41.578;24.706;2023-08-08T02:57:12;90996.41;;;17.86;79.30
3464;BME280;3551;41.578;24.706;2023-08-08T02:59:39;90996.44;;;17.95;78.46
3464;BME280;3551;41.578;24.706;2023-08-08T03:02:06;91007.31;;;18.26;77.83
3464;BME280;3551;41.578;24.706;2023-08-08T03:04:32;91007.94;;;18.30;78.07
3464;BME280;3551;41.578;24.706;2023-08-08T03:06:59;91016.13;;;18.17;79.12
3464;BME280;3551;41.578;24.706;2023-08-08T03:09:29;91009.09;;;17.76;78.96
3464;BME280;3551;41.578;24.706;2023-08-08T03:11:56;91016.75;;;17.56;79.85
3464;BME280;3551;41.578;24.706;2023-08-08T03:14:22;91014.81;;;17.78;77.96
3464;BME280;3551;41.578;24.706;2023-08-08T03:16:49;91016.63;;;17.47;79.49
3464;BME280;3551;41.578;24.706;2023-08-08T03:19:16;91014.50;;;17.42;79.83
3464;BME280;3551;41.578;24.706;2023-08-08T03:21:43;91016.63;;;17.47;79.68
3464;BME280;3551;41.578;24.706;2023-08-08T03:24:09;91018.97;;;17.70;78.66
3464;BME280;3551;41.578;24.706;2023-08-08T03:26:37;91019.59;;;17.74;78.83
3464;BME280;3551;41.578;24.706;2023-08-08T03:29:04;91023.19;;;17.93;78.63
3464;BME280;3551;41.578;24.706;2023-08-08T03:31:35;91028.53;;;17.84;78.28
3464;BME280;3551;41.578;24.706;2023-08-08T03:34:01;91031.03;;;17.78;78.65
3464;BME280;3551;41.578;24.706;2023-08-08T03:36:29;91036.72;;;17.93;78.11
3464;BME280;3551;41.578;24.706;2023-08-08T03:38:56;91039.72;;;17.73;78.16
3464;BME280;3551;41.578;24.706;2023-08-08T03:41:23;91037.03;;;17.73;78.16
3464;BME280;3551;41.578;24.706;2023-08-08T03:43:51;91046.25;;;17.63;78.96
3464;BME280;3551;41.578;24.706;2023-08-08T03:46:17;91044.38;;;17.73;79.13
3464;BME280;3551;41.578;24.706;2023-08-08T03:48:44;91048.19;;;17.97;78.19
3464;BME280;3551;41.578;24.706;2023-08-08T03:51:11;91056.69;;;18.08;77.38
3464;BME280;3551;41.578;24.706;2023-08-08T03:53:38;91044.56;;;18.22;76.69
3464;BME280;3551;41.578;24.706;2023-08-08T03:56:04;91055.22;;;18.38;76.47
3464;BME280;3551;41.578;24.706;2023-08-08T03:58:32;91049.47;;;18.36;77.79
3464;BME280;3551;41.578;24.706;2023-08-08T04:01:00;91048.47;;;18.42;77.25
3464;BME280;3551;41.578;24.706;2023-08-08T04:03:28;91050.81;;;18.31;76.94
3464;BME280;3551;41.578;24.706;2023-08-08T04:05:54;91051.75;;;18.37;76.78
3464;BME280;3551;41.578;24.706;2023-08-08T04:08:22;91047.78;;;18.51;76.65
3464;BME280;3551;41.578;24.706;2023-08-08T04:10:48;91048.56;;;18.51;76.52
3464;BME280;3551;41.578;24.706;2023-08-08T04:13:15;91059.00;;;18.40;76.93
3464;BME280;3551;41.578;24.706;2023-08-08T04:15:42;91058.41;;;18.45;77.50
3464;BME280;3551;41.578;24.706;2023-08-08T04:18:10;91051.78;;;18.68;77.06
3464;BME280;3551;41.578;24.706;2023-08-08T04:20:36;91051.66;;;18.72;77.49
3464;BME280;3551;41.578;24.706;2023-08-08T04:23:03;91061.34;;;18.82;77.37
3464;BME280;3551;41.578;24.706;2023-08-08T04:25:30;91064.53;;;18.89;76.22
3464;BME280;3551;41.578;24.706;2023-08-08T04:27:56;91069.59;;;18.78;76.26
3464;BME280;3551;41.578;24.706;2023-08-08T04:30:23;91069.34;;;18.85;75.72
3464;BME280;3551;41.578;24.706;2023-08-08T04:32:50;91077.91;;;18.84;74.69
3464;BME280;3551;41.578;24.706;2023-08-08T04:35:18;91072.50;;;18.84;74.44
3464;BME280;3551;41.578;24.706;2023-08-08T04:37:44;91071.00;;;18.92;74.20
3464;BME280;3551;41.578;24.706;2023-08-08T04:40:11;91069.25;;;18.67;73.62
3464;BME280;3551;41.578;24.706;2023-08-08T04:42:38;91068.75;;;18.60;74.30
3464;BME280;3551;41.578;24.706;2023-08-08T04:45:05;91067.31;;;18.77;73.92
3464;BME280;3551;41.578;24.706;2023-08-08T04:47:32;91070.25;;;18.91;73.40
3464;BME280;3551;41.578;24.706;2023-08-08T04:49:58;91068.50;;;19.06;74.74
3464;BME280;3551;41.578;24.706;2023-08-08T04:52:26;91069.91;;;19.11;73.95
3464;BME280;3551;41.578;24.706;2023-08-08T04:54:52;91077.44;;;19.16;74.16
3464;BME280;3551;41.578;24.706;2023-08-08T04:57:19;91072.50;;;19.33;73.40
3464;BME280;3551;41.578;24.706;2023-08-08T04:59:46;91078.63;;;19.46;74.75
3464;BME280;3551;41.578;24.706;2023-08-08T05:02:12;91091.16;;;19.61;74.91
3464;BME280;3551;41.578;24.706;2023-08-08T05:04:39;91090.25;;;19.55;74.28
3464;BME280;3551;41.578;24.706;2023-08-08T05:07:06;91088.59;;;19.58;73.80
3464;BME280;3551;41.578;24.706;2023-08-08T05:09:34;91086.63;;;19.49;74.36
3464;BME280;3551;41.578;24.706;2023-08-08T05:12:01;91091.88;;;19.53;73.62
3464;BME280;3551;41.578;24.706;2023-08-08T05:14:27;91091.03;;;19.74;74.32
3464;BME280;3551;41.578;24.706;2023-08-08T05:16:55;91090.06;;;19.50;71.95
3464;BME280;3551;41.578;24.706;2023-08-08T05:19:22;91099.94;;;19.26;72.58
3464;BME280;3551;41.578;24.706;2023-08-08T05:21:49;91109.47;;;19.39;72.18
3464;BME280;3551;41.578;24.706;2023-08-08T05:24:16;91104.72;;;19.71;72.74
3464;BME280;3551;41.578;24.706;2023-08-08T05:26:44;91104.31;;;19.99;72.98
3464;BME280;3551;41.578;24.706;2023-08-08T05:29:10;91111.13;;;20.13;72.69
3464;BME280;3551;41.578;24.706;2023-08-08T05:31:37;91108.41;;;20.22;71.83
3464;BME280;3551;41.578;24.706;2023-08-08T05:34:04;91119.72;;;20.20;72.44
3464;BME280;3551;41.578;24.706;2023-08-08T05:36:30;91120.16;;;20.01;71.39
3464;BME280;3551;41.578;24.706;2023-08-08T05:38:59;91122.44;;;20.11;71.16
3464;BME280;3551;41.578;24.706;2023-08-08T05:41:27;91122.41;;;20.02;70.42
3464;BME280;3551;41.578;24.706;2023-08-08T05:43:55;91126.56;;;20.25;70.95
3464;BME280;3551;41.578;24.706;2023-08-08T05:46:22;91129.84;;;20.38;71.79
3464;BME280;3551;41.578;24.706;2023-08-08T05:48:50;91134.53;;;20.29;71.02
3464;BME280;3551;41.578;24.706;2023-08-08T05:51:17;91133.47;;;20.35;70.94
3464;BME280;3551;41.578;24.706;2023-08-08T05:53:43;91144.19;;;20.39;69.94
3464;BME280;3551;41.578;24.706;2023-08-08T05:56:11;91145.22;;;20.23;71.02
3464;BME280;3551;41.578;24.706;2023-08-08T05:58:38;91150.38;;;20.30;70.55
3464;BME280;3551;41.578;24.706;2023-08-08T06:01:06;91148.69;;;20.23;70.13
3464;BME280;3551;41.578;24.706;2023-08-08T06:03:34;91143.06;;;19.91;69.83
3464;BME280;3551;41.578;24.706;2023-08-08T06:06:03;91146.88;;;19.93;70.46
3464;BME280;3551;41.578;24.706;2023-08-08T06:08:30;91157.09;;;19.89;70.95
3464;BME280;3551;41.578;24.706;2023-08-08T06:10:57;91162.44;;;20.11;69.95
3464;BME280;3551;41.578;24.706;2023-08-08T06:13:24;91167.88;;;20.29;70.63
3464;BME280;3551;41.578;24.706;2023-08-08T06:15:50;91171.66;;;20.32;72.14
3464;BME280;3551;41.578;24.706;2023-08-08T06:18:19;91168.34;;;20.28;72.18
3464;BME280;3551;41.578;24.706;2023-08-08T06:20:45;91168.63;;;20.30;72.24
3464;BME280;3551;41.578;24.706;2023-08-08T06:23:12;91175.28;;;20.38;67.15
3464;BME280;3551;41.578;24.706;2023-08-08T06:25:40;91170.16;;;20.31;71.12
3464;BME280;3551;41.578;24.706;2023-08-08T06:28:06;91165.59;;;20.18;69.75
3464;BME280;3551;41.578;24.706;2023-08-08T06:30:33;91161.56;;;20.41;69.31
3464;BME280;3551;41.578;24.706;2023-08-08T06:33:00;91149.34;;;20.46;68.80
3464;BME280;3551;41.578;24.706;2023-08-08T06:35:28;91158.38;;;20.61;68.38
3464;BME280;3551;41.578;24.706;2023-08-08T06:37:54;91154.28;;;20.84;67.45
3464;BME280;3551;41.578;24.706;2023-08-08T06:40:21;91159.25;;;21.12;65.43
3464;BME280;3551;41.578;24.706;2023-08-08T06:42:49;91157.66;;;21.39;63.52
3464;BME280;3551;41.578;24.706;2023-08-08T06:45:16;91163.47;;;21.55;61.39
3464;BME280;3551;41.578;24.706;2023-08-08T06:47:42;91163.06;;;21.48;63.07
3464;BME280;3551;41.578;24.706;2023-08-08T06:50:09;91168.88;;;21.64;62.49
3464;BME280;3551;41.578;24.706;2023-08-08T06:52:37;91171.22;;;21.80;62.75
3464;BME280;3551;41.578;24.706;2023-08-08T06:55:04;91175.56;;;21.96;60.75
3464;BME280;3551;41.578;24.706;2023-08-08T06:57:32;91179.22;;;21.93;61.75
3464;BME280;3551;41.578;24.706;2023-08-08T06:59:59;91179.94;;;22.03;59.78
3464;BME280;3551;41.578;24.706;2023-08-08T07:02:26;91174.88;;;21.77;59.80
3464;BME280;3551;41.578;24.706;2023-08-08T07:04:52;91185.34;;;21.70;59.37
3464;BME280;3551;41.578;24.706;2023-08-08T07:07:19;91178.72;;;21.62;59.66
3464;BME280;3551;41.578;24.706;2023-08-08T07:09:47;91176.97;;;21.50;60.24
3464;BME280;3551;41.578;24.706;2023-08-08T07:12:14;91179.72;;;21.41;61.30
3464;BME280;3551;41.578;24.706;2023-08-08T07:14:41;91183.38;;;21.28;60.28
3464;BME280;3551;41.578;24.706;2023-08-08T07:17:08;91185.91;;;21.41;60.15
3464;BME280;3551;41.578;24.706;2023-08-08T07:19:35;91192.25;;;21.47;60.76
3464;BME280;3551;41.578;24.706;2023-08-08T07:22:02;91190.75;;;21.79;59.67
3464;BME280;3551;41.578;24.706;2023-08-08T07:24:30;91191.63;;;21.94;59.15
3464;BME280;3551;41.578;24.706;2023-08-08T07:26:58;91180.72;;;21.94;59.03
3464;BME280;3551;41.578;24.706;2023-08-08T07:29:25;91183.34;;;21.89;59.16
3464;BME280;3551;41.578;24.706;2023-08-08T07:31:52;91183.13;;;22.25;57.99
3464;BME280;3551;41.578;24.706;2023-08-08T07:34:19;91196.97;;;22.60;58.29
3464;BME280;3551;41.578;24.706;2023-08-08T07:36:46;91192.72;;;22.68;56.08
3464;BME280;3551;41.578;24.706;2023-08-08T07:39:13;91194.41;;;22.80;56.72
3464;BME280;3551;41.578;24.706;2023-08-08T07:41:40;91190.63;;;22.77;57.28
3464;BME280;3551;41.578;24.706;2023-08-08T07:44:08;91196.50;;;22.61;58.00
3464;BME280;3551;41.578;24.706;2023-08-08T07:46:34;91204.66;;;22.70;57.80
3464;BME280;3551;41.578;24.706;2023-08-08T07:49:01;91211.41;;;22.51;57.74
3464;BME280;3551;41.578;24.706;2023-08-08T07:51:30;91214.56;;;22.35;57.00
3464;BME280;3551;41.578;24.706;2023-08-08T07:53:56;91212.88;;;22.37;56.84
3464;BME280;3551;41.578;24.706;2023-08-08T07:56:23;91220.25;;;22.13;57.22
3464;BME280;3551;41.578;24.706;2023-08-08T07:58:49;91228.06;;;21.97;57.07
3464;BME280;3551;41.578;24.706;2023-08-08T08:01:18;91226.75;;;21.83;57.43
3464;BME280;3551;41.578;24.706;2023-08-08T08:03:44;91235.34;;;21.91;56.81
3464;BME280;3551;41.578;24.706;2023-08-08T08:06:12;91235.28;;;21.58;56.92
3464;BME280;3551;41.578;24.706;2023-08-08T08:08:38;91224.66;;;21.27;59.10
3464;BME280;3551;41.578;24.706;2023-08-08T08:11:05;91230.06;;;21.36;56.43
3464;BME280;3551;41.578;24.706;2023-08-08T08:13:32;91227.97;;;21.22;59.67
3464;BME280;3551;41.578;24.706;2023-08-08T08:15:59;91227.03;;;21.34;59.34
3464;BME280;3551;41.578;24.706;2023-08-08T08:18:28;91229.31;;;21.26;56.59
3464;BME280;3551;41.578;24.706;2023-08-08T08:20:55;91229.19;;;21.03;57.86
3464;BME280;3551;41.578;24.706;2023-08-08T08:23:22;91227.22;;;21.21;57.68
3464;BME280;3551;41.578;24.706;2023-08-08T08:25:48;91224.66;;;21.27;58.11
3464;BME280;3551;41.578;24.706;2023-08-08T08:28:15;91236.28;;;21.27;55.87
3464;BME280;3551;41.578;24.706;2023-08-08T08:30:43;91226.13;;;21.37;56.57
3464;BME280;3551;41.578;24.706;2023-08-08T08:33:09;91235.53;;;21.18;55.92
3464;BME280;3551;41.578;24.706;2023-08-08T08:35:37;91232.34;;;21.19;56.13
3464;BME280;3551;41.578;24.706;2023-08-08T08:38:04;91236.56;;;21.29;55.25
3464;BME280;3551;41.578;24.706;2023-08-08T08:40:32;91234.13;;;21.41;54.90
3464;BME280;3551;41.578;24.706;2023-08-08T08:43:00;91237.66;;;21.14;54.52
3464;BME280;3551;41.578;24.706;2023-08-08T08:45:29;91245.63;;;20.99;57.86
3464;BME280;3551;41.578;24.706;2023-08-08T08:47:56;91242.66;;;21.15;54.53
3464;BME280;3551;41.578;24.706;2023-08-08T08:50:23;91240.97;;;21.00;55.08
3464;BME280;3551;41.578;24.706;2023-08-08T08:52:54;91244.47;;;21.09;53.31
3464;BME280;3551;41.578;24.706;2023-08-08T08:55:22;91247.16;;;20.82;54.32
3464;BME280;3551;41.578;24.706;2023-08-08T08:57:48;91247.78;;;20.86;55.44
3464;BME280;3551;41.578;24.706;2023-08-08T09:00:16;91253.22;;;21.13;56.09
3464;BME280;3551;41.578;24.706;2023-08-08T09:02:42;91250.19;;;21.20;55.80
3464;BME280;3551;41.578;24.706;2023-08-08T09:05:09;91246.25;;;21.30;55.65
3464;BME280;3551;41.578;24.706;2023-08-08T09:07:37;91251.50;;;21.34;55.50
3464;BME280;3551;41.578;24.706;2023-08-08T09:10:05;91250.03;;;21.24;55.09
3464;BME280;3551;41.578;24.706;2023-08-08T09:12:33;91251.69;;;21.30;55.59
3464;BME280;3551;41.578;24.706;2023-08-08T09:15:01;91249.81;;;21.46;54.75
3464;BME280;3551;41.578;24.706;2023-08-08T09:17:31;91245.78;;;21.41;56.31
3464;BME280;3551;41.578;24.706;2023-08-08T09:19:58;91255.53;;;21.66;55.07
3464;BME280;3551;41.578;24.706;2023-08-08T09:22:25;91247.69;;;21.59;54.90
3464;BME280;3551;41.578;24.706;2023-08-08T09:24:52;91252.09;;;21.56;54.76
3464;BME280;3551;41.578;24.706;2023-08-08T09:27:20;91242.66;;;21.66;55.39
3464;BME280;3551;41.578;24.706;2023-08-08T09:29:47;91254.31;;;21.67;54.13
3464;BME280;3551;41.578;24.706;2023-08-08T09:32:14;91256.88;;;21.70;52.55
3464;BME280;3551;41.578;24.706;2023-08-08T09:34:43;91262.31;;;21.70;52.35
3464;BME280;3551;41.578;24.706;2023-08-08T09:37:11;91259.44;;;21.74;53.69
3464;BME280;3551;41.578;24.706;2023-08-08T09:39:40;91258.34;;;21.80;54.04
3464;BME280;3551;41.578;24.706;2023-08-08T09:42:07;91257.31;;;21.69;52.50
3464;BME280;3551;41.578;24.706;2023-08-08T09:44:38;91267.00;;;21.79;54.37
3464;BME280;3551;41.578;24.706;2023-08-08T09:47:11;91263.84;;;21.71;55.18
3464;BME280;3551;41.578;24.706;2023-08-08T09:49:39;91251.94;;;21.60;55.19
3464;BME280;3551;41.578;24.706;2023-08-08T09:52:08;91264.16;;;21.64;54.42
3464;BME280;3551;41.578;24.706;2023-08-08T09:54:42;91258.56;;;21.68;54.71
3464;BME280;3551;41.578;24.706;2023-08-08T09:57:09;91259.19;;;21.54;52.02
3464;BME280;3551;41.578;24.706;2023-08-08T09:59:39;91259.09;;;21.30;51.32
3464;BME280;3551;41.578;24.706;2023-08-08T10:02:07;91266.03;;;21.40;53.14
3464;BME280;3551;41.578;24.706;2023-08-08T10:04:36;91261.84;;;21.72;51.77
3464;BME280;3551;41.578;24.706;2023-08-08T10:07:03;91267.91;;;21.76;53.72
3464;BME280;3551;41.578;24.706;2023-08-08T10:09:30;91267.88;;;21.94;53.24
3464;BME280;3551;41.578;24.706;2023-08-08T10:11:57;91270.00;;;21.90;51.90
3464;BME280;3551;41.578;24.706;2023-08-08T10:14:28;91269.88;;;21.66;50.72
3464;BME280;3551;41.578;24.706;2023-08-08T10:16:56;91271.03;;;21.83;51.27
3464;BME280;3551;41.578;24.706;2023-08-08T10:19:23;91271.28;;;22.04;52.30
3464;BME280;3551;41.578;24.706;2023-08-08T10:21:55;91276.31;;;22.05;52.79
3464;BME280;3551;41.578;24.706;2023-08-08T10:24:22;91276.03;;;21.85;54.09
3464;BME280;3551;41.578;24.706;2023-08-08T10:26:52;91276.50;;;21.83;53.04
3464;BME280;3551;41.578;24.706;2023-08-08T10:29:19;91276.16;;;22.00;51.77
3464;BME280;3551;41.578;24.706;2023-08-08T10:31:59;91274.75;;;22.13;51.38
3464;BME280;3551;41.578;24.706;2023-08-08T10:34:27;91271.34;;;22.27;51.71
3464;BME280;3551;41.578;24.706;2023-08-08T10:36:54;91273.84;;;22.40;51.77
3464;BME280;3551;41.578;24.706;2023-08-08T10:39:21;91276.22;;;22.56;51.34
3464;BME280;3551;41.578;24.706;2023-08-08T10:41:48;91274.41;;;22.20;47.61
3464;BME280;3551;41.578;24.706;2023-08-08T10:44:20;91263.56;;;22.44;48.27
3464;BME280;3551;41.578;24.706;2023-08-08T10:46:47;91268.31;;;22.58;50.72
3464;BME280;3551;41.578;24.706;2023-08-08T10:49:16;91264.72;;;22.52;47.23
3464;BME280;3551;41.578;24.706;2023-08-08T10:51:43;91259.56;;;22.78;47.16
3464;BME280;3551;41.578;24.706;2023-08-08T10:54:12;91253.34;;;23.01;47.66
3464;BME280;3551;41.578;24.706;2023-08-08T10:56:39;91253.75;;;22.61;46.53
3464;BME280;3551;41.578;24.706;2023-08-08T10:59:13;91257.91;;;22.48;48.11
3464;BME280;3551;41.578;24.706;2023-08-08T11:01:40;91247.78;;;22.72;46.24
3464;BME280;3551;41.578;24.706;2023-08-08T11:04:06;91253.41;;;22.92;45.40
3464;BME280;3551;41.578;24.706;2023-08-08T11:06:35;91244.69;;;23.03;44.88
3464;BME280;3551;41.578;24.706;2023-08-08T11:09:04;91250.03;;;23.50;46.23
3464;BME280;3551;41.578;24.706;2023-08-08T11:11:35;91244.78;;;23.76;45.06
3464;BME280;3551;41.578;24.706;2023-08-08T11:14:08;91239.44;;;22.75;43.10
3464;BME280;3551;41.578;24.706;2023-08-08T11:16:34;91241.25;;;22.78;43.33
3464;BME280;3551;41.578;24.706;2023-08-08T11:19:02;91245.97;;;23.31;42.80
3464;BME280;3551;41.578;24.706;2023-08-08T11:21:29;91246.66;;;23.40;43.02
3464;BME280;3551;41.578;24.706;2023-08-08T11:23:57;91246.00;;;23.60;43.02
3464;BME280;3551;41.578;24.706;2023-08-08T11:26:24;91243.19;;;23.69;43.04
3464;BME280;3551;41.578;24.706;2023-08-08T11:28:52;91242.13;;;23.96;45.26
3464;BME280;3551;41.578;24.706;2023-08-08T11:31:19;91239.66;;;23.98;44.59
3464;BME280;3551;41.578;24.706;2023-08-08T11:33:46;91221.13;;;23.87;43.34
3464;BME280;3551;41.578;24.706;2023-08-08T11:36:13;91233.84;;;23.90;43.67
3464;BME280;3551;41.578;24.706;2023-08-08T11:38:40;91244.78;;;23.90;44.71
3464;BME280;3551;41.578;24.706;2023-08-08T11:41:09;91235.25;;;23.71;42.59
3464;BME280;3551;41.578;24.706;2023-08-08T11:43:36;91233.88;;;23.46;42.69
3464;BME280;3551;41.578;24.706;2023-08-08T11:46:08;91223.47;;;23.94;43.12
3464;BME280;3551;41.578;24.706;2023-08-08T11:48:35;91216.38;;;24.17;42.25
3464;BME280;3551;41.578;24.706;2023-08-08T11:51:04;91218.53;;;24.28;43.82
3464;BME280;3551;41.578;24.706;2023-08-08T11:53:34;91220.91;;;23.91;42.03
3464;BME280;3551;41.578;24.706;2023-08-08T11:56:01;91223.03;;;23.52;42.84
3464;BME280;3551;41.578;24.706;2023-08-08T11:58:30;91222.09;;;23.70;42.33
3464;BME280;3551;41.578;24.706;2023-08-08T12:00:57;91222.56;;;23.39;42.46
3464;BME280;3551;41.578;24.706;2023-08-08T12:03:24;91210.78;;;23.47;44.33
3464;BME280;3551;41.578;24.706;2023-08-08T12:05:51;91216.44;;;23.44;42.97
3464;BME280;3551;41.578;24.706;2023-08-08T12:08:18;91220.75;;;23.50;44.42
3464;BME280;3551;41.578;24.706;2023-08-08T12:10:47;91216.63;;;23.70;43.27
3464;BME280;3551;41.578;24.706;2023-08-08T12:13:15;91213.31;;;23.66;42.40
3464;BME280;3551;41.578;24.706;2023-08-08T12:15:43;91211.19;;;22.87;42.91
3464;BME280;3551;41.578;24.706;2023-08-08T12:18:09;91200.94;;;22.82;43.76
3464;BME280;3551;41.578;24.706;2023-08-08T12:20:37;91192.22;;;22.46;45.12
3464;BME280;3551;41.578;24.706;2023-08-08T12:23:04;91192.69;;;22.44;44.93
3464;BME280;3551;41.578;24.706;2023-08-08T12:25:30;91198.16;;;22.44;45.76
3464;BME280;3551;41.578;24.706;2023-08-08T12:28:00;91204.03;;;22.42;45.85
3464;BME280;3551;41.578;24.706;2023-08-08T12:30:36;91197.78;;;22.51;44.99
3464;BME280;3551;41.578;24.706;2023-08-08T12:33:10;91193.38;;;22.54;45.82
3464;BME280;3551;41.578;24.706;2023-08-08T12:35:38;91189.19;;;22.91;44.91
3464;BME280;3551;41.578;24.706;2023-08-08T12:38:04;91195.22;;;23.10;44.87
3464;BME280;3551;41.578;24.706;2023-08-08T12:40:31;91194.03;;;23.40;44.68
3464;BME280;3551;41.578;24.706;2023-08-08T12:43:05;91192.78;;;23.70;45.33
3464;BME280;3551;41.578;24.706;2023-08-08T12:45:31;91187.03;;;23.83;44.91
3464;BME280;3551;41.578;24.706;2023-08-08T12:47:58;91184.88;;;23.87;46.38
3464;BME280;3551;41.578;24.706;2023-08-08T12:50:26;91185.47;;;23.96;46.52
3464;BME280;3551;41.578;24.706;2023-08-08T12:52:53;91182.56;;;24.15;47.08
3464;BME280;3551;41.578;24.706;2023-08-08T12:55:20;91184.91;;;24.22;45.81
3464;BME280;3551;41.578;24.706;2023-08-08T12:57:47;91178.06;;;24.32;45.05
3464;BME280;3551;41.578;24.706;2023-08-08T13:00:15;91184.16;;;24.41;45.92
3464;BME280;3551;41.578;24.706;2023-08-08T13:02:43;91182.81;;;24.51;44.95
3464;BME280;3551;41.578;24.706;2023-08-08T13:05:09;91186.19;;;24.26;42.65
3464;BME280;3551;41.578;24.706;2023-08-08T13:07:37;91178.53;;;24.10;42.73
3464;BME280;3551;41.578;24.706;2023-08-08T13:10:05;91187.94;;;23.94;43.40